Главная страница
METAR-TAF:

METAR-TAF

Аэропорты :

Ставрополь, Россия

широта: 45-20N, долгота: 042-00E, высота над уровнем моря: 453 м

Текущие метеонаблюдения

Эта сводка был подготовлена 39 минут назад, в 22:30 UTC
Ветер 19 Узел от юго-восточный
Температура -2°C
Влажность 100%
Давление 1024 hPa
Видимость 10 км и более
Сплошная облачность на высоте 600 фута

METAR: URMT 182230Z 13010MPS 9999 OVC006 M02/M02 Q1024 R07/190160 NOSIG RMK QFE728

Время: 02:09 (23:09 UTC)

Прогноз

Эта сводка был подготовлена 3 часа и 9 минут назад, в 20:00 UTC
Прогноз действительный с 18-го 21 UTC до 19-го 06 UTC
Ветер 14 Узел от восточно-юго-восточный с порывами до 25 Узел
Видимость: 3100 м
Сплошная облачность на высоте 500 фута
дымка
временами
С 18-го 21 UTC до 19-го 03 UTC
Видимость: 0800 м
Сплошная облачность на высоте 200 фута
переохлажденный туман

TAF: URMT 182000Z 1821/1906 11007G13MPS 3100 BR OVC005 TEMPO 1821/1903 0800 FZFG OVC002

Метеонаблюдения и прогнозы для более 4000 аэропортов (сводки METAR и TAF).

Имеющиеся станции представлены на карте желтыми и красными точками.

Чтобы увидеть название станции, наведите на нее мышь.

Затем щелкните, чтобы увидеть метеонаблюдения и метеопрогнозы.

Управление картой: чтобы увеличить масштаб, щелкните зеленые кнопки с черным крестиком; чтобы уменьшить масштаб, щелкните зеленую кнопку с тире; для просмотра соседних карт щелкайте зеленые стрелки.


METAR-TAF: